Aviation Digital Data Service (ADDS)

Output produced by METARs form (0338 UTC 03 July 2022)
found at http://aviationweather.gov/metar/data/
 
METAR text: KCHD 030247Z 24005KT 10SM FEW100 FEW170 38/13 A2973
Conditions at: KCHD (CHANDLER , AZ, US) observed 0247 UTC 03 July 2022
Temperature: 38.0°C (100°F)
Dewpoint: 13.0°C (55°F) [RH = 23%]
Pressure (altimeter): 29.73 inches Hg (1006.9 mb)
Winds: from the WSW (240 degrees) at 6 MPH (5 knots; 2.6 m/s)
Visibility: 10 or more miles (16+ km)
Ceiling: at least 12,000 feet AGL
Clouds: few clouds at 10000 feet AGL
few clouds at 17000 feet AGL
Weather: no significant weather observed at this time

METAR text: KCHD 030147Z 30005KT 10SM FEW100 FEW170 40/11 A2972
Conditions at: KCHD (CHANDLER , AZ, US) observed 0147 UTC 03 July 2022
Temperature: 40.0°C (104°F)
Dewpoint: 11.0°C (52°F) [RH = 18%]
Pressure (altimeter): 29.72 inches Hg (1006.5 mb)
Winds: from the WNW (300 degrees) at 6 MPH (5 knots; 2.6 m/s)
Visibility: 10 or more miles (16+ km)
Ceiling: at least 12,000 feet AGL
Clouds: few clouds at 10000 feet AGL
few clouds at 17000 feet AGL
Weather: no significant weather observed at this time

METAR text: KCHD 030047Z 27005KT 10SM FEW100 SCT170 40/10 A2973
Conditions at: KCHD (CHANDLER , AZ, US) observed 0047 UTC 03 July 2022
Temperature: 40.0°C (104°F)
Dewpoint: 10.0°C (50°F) [RH = 17%]
Pressure (altimeter): 29.73 inches Hg (1006.9 mb)
Winds: from the W (270 degrees) at 6 MPH (5 knots; 2.6 m/s)
Visibility: 10 or more miles (16+ km)
Ceiling: at least 12,000 feet AGL
Clouds: few clouds at 10000 feet AGL
scattered clouds at 17000 feet AGL
Weather: no significant weather observed at this time

METAR text: KCHD 022347Z 30005KT 10SM FEW100 SCT170 40/11 A2974
Conditions at: KCHD (CHANDLER , AZ, US) observed 2347 UTC 02 July 2022
Temperature: 40.0°C (104°F)
Dewpoint: 11.0°C (52°F) [RH = 18%]
Pressure (altimeter): 29.74 inches Hg (1007.2 mb)
Winds: from the WNW (300 degrees) at 6 MPH (5 knots; 2.6 m/s)
Visibility: 10 or more miles (16+ km)
Ceiling: at least 12,000 feet AGL
Clouds: few clouds at 10000 feet AGL
scattered clouds at 17000 feet AGL
Weather: no significant weather observed at this time

METAR text: KCHD 022247Z 24008KT 10SM FEW100 SCT170 40/11 A2977
Conditions at: KCHD (CHANDLER , AZ, US) observed 2247 UTC 02 July 2022
Temperature: 40.0°C (104°F)
Dewpoint: 11.0°C (52°F) [RH = 18%]
Pressure (altimeter): 29.77 inches Hg (1008.2 mb)
Winds: from the WSW (240 degrees) at 9 MPH (8 knots; 4.1 m/s)
Visibility: 10 or more miles (16+ km)
Ceiling: at least 12,000 feet AGL
Clouds: few clouds at 10000 feet AGL
scattered clouds at 17000 feet AGL
Weather: no significant weather observed at this time

METAR text: KCHD 022147Z 22009KT 10SM SCT170 40/12 A2979
Conditions at: KCHD (CHANDLER , AZ, US) observed 2147 UTC 02 July 2022
Temperature: 40.0°C (104°F)
Dewpoint: 12.0°C (54°F) [RH = 19%]
Pressure (altimeter): 29.79 inches Hg (1008.9 mb)
Winds: from the SW (220 degrees) at 10 MPH (9 knots; 4.6 m/s)
Visibility: 10 or more miles (16+ km)
Ceiling: at least 12,000 feet AGL
Clouds: scattered clouds at 17000 feet AGL
Weather: no significant weather observed at this time

METAR text: KCHD 022047Z 24008KT 10SM SCT170 39/13 A2982
Conditions at: KCHD (CHANDLER , AZ, US) observed 2047 UTC 02 July 2022
Temperature: 39.0°C (102°F)
Dewpoint: 13.0°C (55°F) [RH = 21%]
Pressure (altimeter): 29.82 inches Hg (1009.9 mb)
Winds: from the WSW (240 degrees) at 9 MPH (8 knots; 4.1 m/s)
Visibility: 10 or more miles (16+ km)
Ceiling: at least 12,000 feet AGL
Clouds: scattered clouds at 17000 feet AGL
Weather: no significant weather observed at this time

METAR text: KCHD 021947Z 24007KT 10SM BKN180 39/10 A2984
Conditions at: KCHD (CHANDLER , AZ, US) observed 1947 UTC 02 July 2022
Temperature: 39.0°C (102°F)
Dewpoint: 10.0°C (50°F) [RH = 18%]
Pressure (altimeter): 29.84 inches Hg (1010.6 mb)
Winds: from the WSW (240 degrees) at 8 MPH (7 knots; 3.6 m/s)
Visibility: 10 or more miles (16+ km)
Ceiling: 18000 feet AGL
Clouds: broken clouds at 18000 feet AGL
Weather: no significant weather observed at this time

METAR text: KCHD 021847Z 24007KT 10SM BKN180 37/14 A2987
Conditions at: KCHD (CHANDLER , AZ, US) observed 1847 UTC 02 July 2022
Temperature: 37.0°C (99°F)
Dewpoint: 14.0°C (57°F) [RH = 25%]
Pressure (altimeter): 29.87 inches Hg (1011.6 mb)
Winds: from the WSW (240 degrees) at 8 MPH (7 knots; 3.6 m/s)
Visibility: 10 or more miles (16+ km)
Ceiling: 18000 feet AGL
Clouds: broken clouds at 18000 feet AGL
Weather: no significant weather observed at this time

METAR text: KCHD 021747Z 23005KT 10SM OVC180 36/14 A2988
Conditions at: KCHD (CHANDLER , AZ, US) observed 1747 UTC 02 July 2022
Temperature: 36.0°C (97°F)
Dewpoint: 14.0°C (57°F) [RH = 27%]
Pressure (altimeter): 29.88 inches Hg (1011.9 mb)
Winds: from the SW (230 degrees) at 6 MPH (5 knots; 2.6 m/s)
Visibility: 10 or more miles (16+ km)
Ceiling: 18000 feet AGL
Clouds: overcast cloud deck at 18000 feet AGL
Weather: no significant weather observed at this time

METAR text: KCHD 021647Z 00000KT 10SM OVC180 35/14 A2989
Conditions at: KCHD (CHANDLER , AZ, US) observed 1647 UTC 02 July 2022
Temperature: 35.0°C (95°F)
Dewpoint: 14.0°C (57°F) [RH = 28%]
Pressure (altimeter): 29.89 inches Hg (1012.3 mb)
Winds: calm
Visibility: 10 or more miles (16+ km)
Ceiling: 18000 feet AGL
Clouds: overcast cloud deck at 18000 feet AGL
Weather: no significant weather observed at this time

METAR text: KCHD 021547Z 00000KT 10SM BKN110 33/17 A2989
Conditions at: KCHD (CHANDLER , AZ, US) observed 1547 UTC 02 July 2022
Temperature: 33.0°C (91°F)
Dewpoint: 17.0°C (63°F) [RH = 39%]
Pressure (altimeter): 29.89 inches Hg (1012.3 mb)
Winds: calm
Visibility: 10 or more miles (16+ km)
Ceiling: 11000 feet AGL
Clouds: broken clouds at 11000 feet AGL
Weather: no significant weather observed at this time